<?xml version="1.0" encoding="UTF-8" standalone="no" ?>
<gpx xmlns="http://www.topografix.com/GPX/1/1" xmlns:xsi="http://www.w3.org/2001/XMLSchema-instance" xsi:schemaLocation="http://www.topografix.com/GPX/1/1 http://www.topografix.com/GPX/1/1/gpx.xsd" version="1.1" creator="VisuGPX - https://www.visugpx.com">
  <metadata>
    <name>tour france</name>
  </metadata>
  <trk>
    <name><![CDATA[SES_9]]></name>
    <extensions>
      <line xmlns="http://www.topografix.com/GPX/gpx_style/0/2">
        <color>880000</color>
        <width>4</width>
      </line>
    </extensions>
    <trkseg>
      <trkpt lat="43.8762" lon="0.10706">
        <ele>141.054</ele>
        <time>2016-09-25T18:29:35Z</time>
      </trkpt>
      <trkpt lat="43.87383" lon="0.1083">
        <ele>135.765</ele>
        <time>2016-09-25T18:29:55Z</time>
      </trkpt>
      <trkpt lat="43.87278" lon="0.10852">
        <ele>131.718</ele>
        <time>2016-09-25T18:30:15Z</time>
      </trkpt>
      <trkpt lat="43.87173" lon="0.10828">
        <ele>129.987</ele>
        <time>2016-09-25T18:30:35Z</time>
      </trkpt>
      <trkpt lat="43.87069" lon="0.10781">
        <ele>130.041</ele>
        <time>2016-09-25T18:30:55Z</time>
      </trkpt>
      <trkpt lat="43.8669" lon="0.10603">
        <ele>137.981</ele>
        <time>2016-09-25T18:31:15Z</time>
      </trkpt>
      <trkpt lat="43.86599" lon="0.10581">
        <ele>135.609</ele>
        <time>2016-09-25T18:31:35Z</time>
      </trkpt>
      <trkpt lat="43.8651" lon="0.1059">
        <ele>136.008</ele>
        <time>2016-09-25T18:31:55Z</time>
      </trkpt>
      <trkpt lat="43.86428" lon="0.10624">
        <ele>138.36</ele>
        <time>2016-09-25T18:32:15Z</time>
      </trkpt>
      <trkpt lat="43.86312" lon="0.10753">
        <ele>139.787</ele>
        <time>2016-09-25T18:32:35Z</time>
      </trkpt>
      <trkpt lat="43.86227" lon="0.10689">
        <ele>143.286</ele>
        <time>2016-09-25T18:32:55Z</time>
      </trkpt>
      <trkpt lat="43.86165" lon="0.10581">
        <ele>147.135</ele>
        <time>2016-09-25T18:33:15Z</time>
      </trkpt>
      <trkpt lat="43.8607" lon="0.10036">
        <ele>157.261</ele>
        <time>2016-09-25T18:33:35Z</time>
      </trkpt>
      <trkpt lat="43.85926" lon="0.10051">
        <ele>158.9</ele>
      </trkpt>
      <trkpt lat="43.85842" lon="0.10044">
        <ele>161.7</ele>
        <time>2016-09-25T18:33:55Z</time>
      </trkpt>
      <trkpt lat="43.85783" lon="0.10024">
        <ele>162.8</ele>
      </trkpt>
      <trkpt lat="43.85729" lon="0.09996">
        <ele>160.045</ele>
        <time>2016-09-25T18:34:15Z</time>
      </trkpt>
      <trkpt lat="43.85513" lon="0.09843">
        <ele>157.474</ele>
        <time>2016-09-25T18:34:35Z</time>
      </trkpt>
      <trkpt lat="43.8557" lon="0.09755">
        <ele>154.669</ele>
        <time>2016-09-25T18:34:55Z</time>
      </trkpt>
      <trkpt lat="43.85642" lon="0.09652">
        <ele>150.004</ele>
        <time>2016-09-25T18:35:15Z</time>
      </trkpt>
      <trkpt lat="43.85559" lon="0.09509">
        <ele>150.024</ele>
        <time>2016-09-25T18:35:35Z</time>
      </trkpt>
      <trkpt lat="43.85509" lon="0.0941">
        <ele>152.708</ele>
        <time>2016-09-25T18:35:55Z</time>
      </trkpt>
      <trkpt lat="43.85423" lon="0.0932">
        <ele>156.732</ele>
        <time>2016-09-25T18:36:15Z</time>
      </trkpt>
      <trkpt lat="43.85331" lon="0.08974">
        <ele>164.929</ele>
        <time>2016-09-25T18:36:35Z</time>
      </trkpt>
      <trkpt lat="43.8527" lon="0.08893">
        <ele>165.068</ele>
        <time>2016-09-25T18:36:55Z</time>
      </trkpt>
      <trkpt lat="43.85144" lon="0.08693">
        <ele>172.957</ele>
        <time>2016-09-25T18:37:15Z</time>
      </trkpt>
      <trkpt lat="43.85016" lon="0.08519">
        <ele>177.443</ele>
        <time>2016-09-25T18:37:35Z</time>
      </trkpt>
      <trkpt lat="43.8502" lon="0.08454">
        <ele>173.2</ele>
        <time>2016-09-25T18:37:55Z</time>
      </trkpt>
      <trkpt lat="43.84949" lon="0.08386">
        <ele>177.767</ele>
        <time>2016-09-25T18:38:15Z</time>
      </trkpt>
      <trkpt lat="43.8496" lon="0.0835">
        <ele>176.146</ele>
        <time>2016-09-25T18:38:35Z</time>
      </trkpt>
      <trkpt lat="43.84925" lon="0.08187">
        <ele>165.981</ele>
        <time>2016-09-25T18:38:55Z</time>
      </trkpt>
      <trkpt lat="43.84931" lon="0.08094">
        <ele>164.061</ele>
        <time>2016-09-25T18:39:15Z</time>
      </trkpt>
      <trkpt lat="43.84955" lon="0.07981">
        <ele>162.017</ele>
        <time>2016-09-25T18:39:35Z</time>
      </trkpt>
      <trkpt lat="43.84904" lon="0.07908">
        <ele>169.408</ele>
        <time>2016-09-25T18:39:55Z</time>
      </trkpt>
      <trkpt lat="43.84784" lon="0.07818">
        <ele>175.8</ele>
      </trkpt>
      <trkpt lat="43.8476" lon="0.07783">
        <ele>172.134</ele>
        <time>2016-09-25T18:40:15Z</time>
      </trkpt>
      <trkpt lat="43.84725" lon="0.07698">
        <ele>168.291</ele>
        <time>2016-09-25T18:40:35Z</time>
      </trkpt>
      <trkpt lat="43.84641" lon="0.07612">
        <ele>163.25</ele>
        <time>2016-09-25T18:40:55Z</time>
      </trkpt>
      <trkpt lat="43.84507" lon="0.075">
        <ele>161.249</ele>
        <time>2016-09-25T18:41:15Z</time>
      </trkpt>
      <trkpt lat="43.84389" lon="0.07421">
        <ele>158.045</ele>
        <time>2016-09-25T18:41:35Z</time>
      </trkpt>
      <trkpt lat="43.84362" lon="0.07373">
        <ele>159.1</ele>
        <time>2016-09-25T18:41:55Z</time>
      </trkpt>
      <trkpt lat="43.84313" lon="0.07314">
        <ele>153.9</ele>
        <time>2016-09-25T18:42:15Z</time>
      </trkpt>
      <trkpt lat="43.84245" lon="0.07217">
        <ele>138.558</ele>
        <time>2016-09-25T18:42:35Z</time>
      </trkpt>
      <trkpt lat="43.84258" lon="0.07119">
        <ele>137</ele>
      </trkpt>
      <trkpt lat="43.84247" lon="0.071">
        <ele>135.1</ele>
      </trkpt>
      <trkpt lat="43.84234" lon="0.07085">
        <ele>133.5</ele>
        <time>2016-09-25T18:42:55Z</time>
      </trkpt>
      <trkpt lat="43.84148" lon="0.07052">
        <ele>133.609</ele>
        <time>2016-09-25T18:43:15Z</time>
      </trkpt>
      <trkpt lat="43.84114" lon="0.07009">
        <ele>132.9</ele>
      </trkpt>
      <trkpt lat="43.8409" lon="0.06965">
        <ele>131.9</ele>
        <time>2016-09-25T18:43:35Z</time>
      </trkpt>
      <trkpt lat="43.8408" lon="0.06946">
        <ele>131.7</ele>
      </trkpt>
      <trkpt lat="43.84001" lon="0.06816">
        <ele>127.008</ele>
        <time>2016-09-25T18:43:55Z</time>
      </trkpt>
      <trkpt lat="43.83991" lon="0.06758">
        <ele>127.037</ele>
        <time>2016-09-25T18:44:15Z</time>
      </trkpt>
      <trkpt lat="43.84027" lon="0.067">
        <ele>127.044</ele>
        <time>2016-09-25T18:44:35Z</time>
      </trkpt>
      <trkpt lat="43.84021" lon="0.06603">
        <ele>127.093</ele>
        <time>2016-09-25T18:44:55Z</time>
      </trkpt>
      <trkpt lat="43.839" lon="0.06532">
        <ele>135.392</ele>
        <time>2016-09-25T18:45:15Z</time>
      </trkpt>
      <trkpt lat="43.8385" lon="0.06519">
        <ele>141.198</ele>
        <time>2016-09-25T18:45:35Z</time>
      </trkpt>
      <trkpt lat="43.83813" lon="0.06445">
        <ele>146.4</ele>
      </trkpt>
      <trkpt lat="43.83764" lon="0.06389">
        <ele>148.521</ele>
        <time>2016-09-25T18:46:35Z</time>
      </trkpt>
      <trkpt lat="43.83702" lon="0.06344">
        <ele>151.542</ele>
        <time>2016-09-25T18:47:15Z</time>
      </trkpt>
      <trkpt lat="43.83539" lon="0.06165">
        <ele>156.208</ele>
        <time>2016-09-25T18:47:55Z</time>
      </trkpt>
      <trkpt lat="43.83433" lon="0.06035">
        <ele>163.214</ele>
        <time>2016-09-25T18:48:15Z</time>
      </trkpt>
      <trkpt lat="43.83282" lon="0.05854">
        <ele>155.72</ele>
        <time>2016-09-25T18:48:55Z</time>
      </trkpt>
      <trkpt lat="43.83217" lon="0.05765">
        <ele>163.8</ele>
        <time>2016-09-25T18:49:15Z</time>
      </trkpt>
      <trkpt lat="43.83208" lon="0.05736">
        <ele>164.895</ele>
        <time>2016-09-25T18:49:35Z</time>
      </trkpt>
      <trkpt lat="43.83148" lon="0.05663">
        <ele>170.026</ele>
        <time>2016-09-25T18:49:55Z</time>
      </trkpt>
      <trkpt lat="43.8307" lon="0.05775">
        <ele>175.089</ele>
        <time>2016-09-25T18:50:15Z</time>
      </trkpt>
      <trkpt lat="43.83021" lon="0.05429">
        <ele>169.118</ele>
        <time>2016-09-25T18:50:35Z</time>
      </trkpt>
      <trkpt lat="43.83049" lon="0.05292">
        <ele>164.343</ele>
        <time>2016-09-25T18:50:55Z</time>
      </trkpt>
      <trkpt lat="43.83118" lon="0.05146">
        <ele>160.264</ele>
        <time>2016-09-25T18:51:15Z</time>
      </trkpt>
      <trkpt lat="43.83227" lon="0.04964">
        <ele>156.91</ele>
        <time>2016-09-25T18:51:35Z</time>
      </trkpt>
      <trkpt lat="43.83343" lon="0.04816">
        <ele>157.008</ele>
        <time>2016-09-25T18:51:55Z</time>
      </trkpt>
      <trkpt lat="43.83292" lon="0.04747">
        <ele>154.95</ele>
        <time>2016-09-25T18:52:15Z</time>
      </trkpt>
      <trkpt lat="43.83281" lon="0.04719">
        <ele>153.097</ele>
        <time>2016-09-25T18:52:35Z</time>
      </trkpt>
      <trkpt lat="43.83216" lon="0.04614">
        <ele>142.346</ele>
        <time>2016-09-25T18:52:55Z</time>
      </trkpt>
      <trkpt lat="43.83188" lon="0.04543">
        <ele>135.335</ele>
        <time>2016-09-25T18:53:15Z</time>
      </trkpt>
      <trkpt lat="43.83151" lon="0.04518">
        <ele>133.4</ele>
        <time>2016-09-25T18:53:35Z</time>
      </trkpt>
      <trkpt lat="43.83104" lon="0.0449">
        <ele>134.2</ele>
        <time>2016-09-25T18:53:55Z</time>
      </trkpt>
      <trkpt lat="43.83074" lon="0.04512">
        <ele>136</ele>
        <time>2016-09-25T18:54:15Z</time>
      </trkpt>
      <trkpt lat="43.83004" lon="0.04502">
        <ele>141.434</ele>
        <time>2016-09-25T18:54:35Z</time>
      </trkpt>
      <trkpt lat="43.82747" lon="0.04374">
        <ele>156.053</ele>
        <time>2016-09-25T18:54:55Z</time>
      </trkpt>
      <trkpt lat="43.82628" lon="0.04354">
        <ele>156.304</ele>
        <time>2016-09-25T18:55:15Z</time>
      </trkpt>
      <trkpt lat="43.82573" lon="0.04359">
        <ele>157.114</ele>
        <time>2016-09-25T18:55:35Z</time>
      </trkpt>
      <trkpt lat="43.82519" lon="0.04348">
        <ele>159.108</ele>
        <time>2016-09-25T18:55:55Z</time>
      </trkpt>
      <trkpt lat="43.82386" lon="0.0438">
        <ele>164.431</ele>
        <time>2016-09-25T18:56:15Z</time>
      </trkpt>
      <trkpt lat="43.82309" lon="0.04346">
        <ele>161.318</ele>
        <time>2016-09-25T18:56:35Z</time>
      </trkpt>
      <trkpt lat="43.82207" lon="0.04264">
        <ele>149.717</ele>
        <time>2016-09-25T18:56:55Z</time>
      </trkpt>
      <trkpt lat="43.82111" lon="0.04138">
        <ele>136.996</ele>
        <time>2016-09-25T18:57:15Z</time>
      </trkpt>
      <trkpt lat="43.82005" lon="0.04011">
        <ele>130.452</ele>
        <time>2016-09-25T18:57:35Z</time>
      </trkpt>
      <trkpt lat="43.81962" lon="0.03902">
        <ele>128.653</ele>
        <time>2016-09-25T18:57:55Z</time>
      </trkpt>
      <trkpt lat="43.81889" lon="0.03807">
        <ele>126.086</ele>
        <time>2016-09-25T18:58:15Z</time>
      </trkpt>
      <trkpt lat="43.81785" lon="0.03548">
        <ele>119.225</ele>
        <time>2016-09-25T18:58:35Z</time>
      </trkpt>
      <trkpt lat="43.81665" lon="0.03554">
        <ele>119.017</ele>
        <time>2016-09-25T18:58:55Z</time>
      </trkpt>
      <trkpt lat="43.81516" lon="0.03627">
        <ele>136.887</ele>
        <time>2016-09-25T18:59:15Z</time>
      </trkpt>
      <trkpt lat="43.81372" lon="0.03601">
        <ele>142.415</ele>
        <time>2016-09-25T18:59:35Z</time>
      </trkpt>
      <trkpt lat="43.80993" lon="0.03676">
        <ele>149.808</ele>
        <time>2016-09-25T18:59:55Z</time>
      </trkpt>
      <trkpt lat="43.80756" lon="0.03792">
        <ele>153.297</ele>
        <time>2016-09-25T19:00:15Z</time>
      </trkpt>
      <trkpt lat="43.80599" lon="0.03837">
        <ele>139.254</ele>
        <time>2016-09-25T19:00:35Z</time>
      </trkpt>
      <trkpt lat="43.80503" lon="0.03797">
        <ele>134.433</ele>
        <time>2016-09-25T19:00:55Z</time>
      </trkpt>
      <trkpt lat="43.80434" lon="0.0379">
        <ele>132.272</ele>
        <time>2016-09-25T19:01:15Z</time>
      </trkpt>
      <trkpt lat="43.80362" lon="0.03842">
        <ele>134.088</ele>
        <time>2016-09-25T19:01:35Z</time>
      </trkpt>
      <trkpt lat="43.80254" lon="0.04011">
        <ele>130.159</ele>
        <time>2016-09-25T19:01:55Z</time>
      </trkpt>
      <trkpt lat="43.80127" lon="0.04127">
        <ele>132.832</ele>
        <time>2021-01-03T14:55:20Z</time>
      </trkpt>
      <trkpt lat="43.80062" lon="0.04144">
        <ele>133.121</ele>
        <time>2021-01-03T14:55:40Z</time>
      </trkpt>
      <trkpt lat="43.80019" lon="0.0417">
        <ele>134.328</ele>
        <time>2021-01-03T14:56:00Z</time>
      </trkpt>
      <trkpt lat="43.79998" lon="0.04098">
        <ele>132.689</ele>
        <time>2021-01-03T14:56:20Z</time>
      </trkpt>
      <trkpt lat="43.79956" lon="0.04122">
        <ele>135.617</ele>
        <time>2021-01-03T14:56:40Z</time>
      </trkpt>
      <trkpt lat="43.79936" lon="0.04064">
        <ele>132.908</ele>
        <time>2021-01-03T14:57:00Z</time>
      </trkpt>
      <trkpt lat="43.79897" lon="0.0404">
        <ele>131.058</ele>
        <time>2021-01-03T14:57:20Z</time>
      </trkpt>
      <trkpt lat="43.79806" lon="0.03931">
        <ele>123.185</ele>
        <time>2021-01-03T14:57:40Z</time>
      </trkpt>
      <trkpt lat="43.79766" lon="0.03829">
        <ele>119.064</ele>
        <time>2021-01-03T14:58:00Z</time>
      </trkpt>
      <trkpt lat="43.79762" lon="0.03804">
        <ele>119.083</ele>
        <time>2021-01-03T14:58:20Z</time>
      </trkpt>
      <trkpt lat="43.79737" lon="0.03754">
        <ele>118.139</ele>
        <time>2021-01-03T14:58:40Z</time>
      </trkpt>
      <trkpt lat="43.79556" lon="0.03292">
        <ele>120.03</ele>
        <time>2016-09-25T19:03:15Z</time>
      </trkpt>
      <trkpt lat="43.79483" lon="0.0317">
        <ele>120.063</ele>
        <time>2016-09-25T19:03:35Z</time>
      </trkpt>
      <trkpt lat="43.79407" lon="0.03258">
        <ele>119.862</ele>
        <time>2016-09-25T19:03:55Z</time>
      </trkpt>
      <trkpt lat="43.79328" lon="0.03194">
        <ele>119.824</ele>
        <time>2016-09-25T19:04:15Z</time>
      </trkpt>
      <trkpt lat="43.79106" lon="0.03082">
        <ele>118.904</ele>
        <time>2016-09-25T19:04:35Z</time>
      </trkpt>
      <trkpt lat="43.78979" lon="0.03116">
        <ele>117.214</ele>
        <time>2016-09-25T19:04:55Z</time>
      </trkpt>
      <trkpt lat="43.78922" lon="0.03155">
        <ele>118.608</ele>
        <time>2016-09-25T19:05:15Z</time>
      </trkpt>
      <trkpt lat="43.78821" lon="0.03316">
        <ele>119.358</ele>
        <time>2016-09-25T19:05:35Z</time>
      </trkpt>
      <trkpt lat="43.78627" lon="0.03362">
        <ele>127.4</ele>
        <time>2016-09-25T19:05:55Z</time>
      </trkpt>
      <trkpt lat="43.78584" lon="0.03307">
        <ele>129.924</ele>
        <time>2016-09-25T19:06:15Z</time>
      </trkpt>
      <trkpt lat="43.78383" lon="0.03161">
        <ele>149.243</ele>
        <time>2016-09-25T19:06:35Z</time>
      </trkpt>
      <trkpt lat="43.78231" lon="0.02994">
        <ele>150.439</ele>
        <time>2016-09-25T19:06:55Z</time>
      </trkpt>
      <trkpt lat="43.78244" lon="0.029">
        <ele>150.01</ele>
        <time>2016-09-25T19:07:15Z</time>
      </trkpt>
      <trkpt lat="43.78257" lon="0.02771">
        <ele>148.233</ele>
        <time>2016-09-25T19:07:35Z</time>
      </trkpt>
      <trkpt lat="43.78293" lon="0.02626">
        <ele>142.7</ele>
        <time>2016-09-25T19:07:55Z</time>
      </trkpt>
      <trkpt lat="43.78259" lon="0.0261">
        <ele>145.791</ele>
        <time>2016-09-25T19:08:15Z</time>
      </trkpt>
      <trkpt lat="43.78163" lon="0.02588">
        <ele>142.081</ele>
        <time>2016-09-25T19:08:35Z</time>
      </trkpt>
      <trkpt lat="43.78175" lon="0.02423">
        <ele>141.319</ele>
        <time>2016-09-25T19:08:55Z</time>
      </trkpt>
      <trkpt lat="43.7803" lon="0.02372">
        <ele>134.708</ele>
        <time>2016-09-25T19:09:15Z</time>
      </trkpt>
      <trkpt lat="43.78047" lon="0.02287">
        <ele>137.4</ele>
        <time>2016-09-25T19:09:35Z</time>
      </trkpt>
      <trkpt lat="43.78223" lon="0.01552">
        <ele>130.192</ele>
        <time>2016-09-25T19:09:55Z</time>
      </trkpt>
      <trkpt lat="43.78216" lon="0.015">
        <ele>129.551</ele>
        <time>2021-01-03T15:06:00Z</time>
      </trkpt>
      <trkpt lat="43.78151" lon="0.01341">
        <ele>119.91</ele>
        <time>2021-01-03T15:06:20Z</time>
      </trkpt>
      <trkpt lat="43.7814" lon="0.01274">
        <ele>116.016</ele>
        <time>2021-01-03T15:06:40Z</time>
      </trkpt>
      <trkpt lat="43.78259" lon="0.01268">
        <ele>120.527</ele>
        <time>2021-01-03T15:07:00Z</time>
      </trkpt>
      <trkpt lat="43.78303" lon="0.01082">
        <ele>132.6</ele>
        <time>2016-09-25T19:11:15Z</time>
      </trkpt>
      <trkpt lat="43.78248" lon="0.00994">
        <ele>136.129</ele>
        <time>2016-09-25T19:11:35Z</time>
      </trkpt>
      <trkpt lat="43.78036" lon="0.00921">
        <ele>130.089</ele>
        <time>2016-09-25T19:11:55Z</time>
      </trkpt>
      <trkpt lat="43.77932" lon="0.00906">
        <ele>130.006</ele>
        <time>2016-09-25T19:12:15Z</time>
      </trkpt>
      <trkpt lat="43.77782" lon="0.00801">
        <ele>125.326</ele>
        <time>2016-09-25T19:12:35Z</time>
      </trkpt>
      <trkpt lat="43.77736" lon="0.00811">
        <ele>122.6</ele>
      </trkpt>
      <trkpt lat="43.77701" lon="0.00792">
        <ele>115.908</ele>
        <time>2016-09-25T19:12:55Z</time>
      </trkpt>
      <trkpt lat="43.77508" lon="0.00653">
        <ele>99.094</ele>
        <time>2016-09-25T19:13:15Z</time>
      </trkpt>
      <trkpt lat="43.77528" lon="0.00589">
        <ele>99.041</ele>
        <time>2016-09-25T19:13:35Z</time>
      </trkpt>
      <trkpt lat="43.77531" lon="0.00486">
        <ele>99.04</ele>
        <time>2016-09-25T19:13:55Z</time>
      </trkpt>
      <trkpt lat="43.77463" lon="0.00316">
        <ele>99.049</ele>
        <time>2016-09-25T19:14:15Z</time>
      </trkpt>
      <trkpt lat="43.77458" lon="0.00252">
        <ele>99.085</ele>
        <time>2016-09-25T19:14:35Z</time>
      </trkpt>
      <trkpt lat="43.77393" lon="0.00202">
        <ele>107.066</ele>
        <time>2016-09-25T19:14:55Z</time>
      </trkpt>
      <trkpt lat="43.77345" lon="0.00258">
        <ele>109.359</ele>
        <time>2016-09-25T19:15:15Z</time>
      </trkpt>
      <trkpt lat="43.77289" lon="0.00243">
        <ele>115.988</ele>
        <time>2016-09-25T19:15:35Z</time>
      </trkpt>
      <trkpt lat="43.77227" lon="0.00179">
        <ele>126.515</ele>
        <time>2016-09-25T19:15:55Z</time>
      </trkpt>
      <trkpt lat="43.77212" lon="0.00138">
        <ele>130.265</ele>
        <time>2016-09-25T19:16:15Z</time>
      </trkpt>
      <trkpt lat="43.77139" lon="0.00046">
        <ele>139.411</ele>
        <time>2016-09-25T19:16:35Z</time>
      </trkpt>
      <trkpt lat="43.77033" lon="0.00101">
        <ele>134.908</ele>
        <time>2016-09-25T19:16:55Z</time>
      </trkpt>
      <trkpt lat="43.76984" lon="-0.00045">
        <ele>134.167</ele>
        <time>2016-09-25T19:17:15Z</time>
      </trkpt>
      <trkpt lat="43.76883" lon="-0.001">
        <ele>135.624</ele>
        <time>2016-09-25T19:17:35Z</time>
      </trkpt>
      <trkpt lat="43.76852" lon="-0.00167">
        <ele>127.433</ele>
        <time>2016-09-25T19:17:55Z</time>
      </trkpt>
      <trkpt lat="43.76827" lon="-0.00165">
        <ele>123.392</ele>
        <time>2016-09-25T19:18:15Z</time>
      </trkpt>
      <trkpt lat="43.76707" lon="-0.00278">
        <ele>104.948</ele>
        <time>2016-09-25T19:18:35Z</time>
      </trkpt>
      <trkpt lat="43.76672" lon="-0.00411">
        <ele>101.859</ele>
        <time>2016-09-25T19:18:55Z</time>
      </trkpt>
      <trkpt lat="43.76617" lon="-0.00499">
        <ele>98.082</ele>
        <time>2016-09-25T19:19:15Z</time>
      </trkpt>
      <trkpt lat="43.76634" lon="-0.00632">
        <ele>99.361</ele>
        <time>2016-09-25T19:19:35Z</time>
      </trkpt>
      <trkpt lat="43.7661" lon="-0.00995">
        <ele>115.038</ele>
        <time>2016-09-25T19:19:55Z</time>
      </trkpt>
      <trkpt lat="43.76575" lon="-0.01111">
        <ele>120.37</ele>
        <time>2016-09-25T19:20:15Z</time>
      </trkpt>
      <trkpt lat="43.76485" lon="-0.01745">
        <ele>134.617</ele>
        <time>2021-01-03T15:16:40Z</time>
      </trkpt>
      <trkpt lat="43.7635" lon="-0.01775">
        <ele>130.608</ele>
        <time>2021-01-03T15:17:00Z</time>
      </trkpt>
      <trkpt lat="43.76358" lon="-0.01887">
        <ele>120.219</ele>
        <time>2021-01-03T15:17:20Z</time>
      </trkpt>
      <trkpt lat="43.7631" lon="-0.0207">
        <ele>96.036</ele>
        <time>2021-01-03T15:17:40Z</time>
      </trkpt>
      <trkpt lat="43.76464" lon="-0.02126">
        <ele>97.625</ele>
        <time>2021-01-03T15:18:00Z</time>
      </trkpt>
      <trkpt lat="43.76486" lon="-0.02265">
        <ele>93.244</ele>
        <time>2016-09-25T19:21:15Z</time>
      </trkpt>
      <trkpt lat="43.76299" lon="-0.02847">
        <ele>95.04</ele>
        <time>2016-09-25T19:21:35Z</time>
      </trkpt>
      <trkpt lat="43.75783" lon="-0.03437">
        <ele>104.661</ele>
        <time>2016-09-25T19:21:55Z</time>
      </trkpt>
      <trkpt lat="43.7576" lon="-0.03473">
        <ele>105.074</ele>
        <time>2016-09-25T19:22:15Z</time>
      </trkpt>
      <trkpt lat="43.75733" lon="-0.03566">
        <ele>108.423</ele>
        <time>2016-09-25T19:22:35Z</time>
      </trkpt>
      <trkpt lat="43.75726" lon="-0.04624">
        <ele>145.086</ele>
        <time>2016-09-25T19:22:55Z</time>
      </trkpt>
      <trkpt lat="43.75619" lon="-0.04875">
        <ele>147.8</ele>
        <time>2016-09-25T19:23:15Z</time>
      </trkpt>
      <trkpt lat="43.75671" lon="-0.05128">
        <ele>142.726</ele>
        <time>2016-09-25T19:23:35Z</time>
      </trkpt>
      <trkpt lat="43.75636" lon="-0.05246">
        <ele>145.008</ele>
        <time>2016-09-25T19:23:55Z</time>
      </trkpt>
      <trkpt lat="43.7562" lon="-0.05381">
        <ele>145.014</ele>
        <time>2016-09-25T19:24:15Z</time>
      </trkpt>
      <trkpt lat="43.75698" lon="-0.05643">
        <ele>139.081</ele>
        <time>2016-09-25T19:24:35Z</time>
      </trkpt>
      <trkpt lat="43.75738" lon="-0.05937">
        <ele>131.02</ele>
        <time>2016-09-25T19:24:55Z</time>
      </trkpt>
      <trkpt lat="43.75736" lon="-0.06261">
        <ele>107.895</ele>
        <time>2016-09-25T19:25:35Z</time>
      </trkpt>
      <trkpt lat="43.75749" lon="-0.06329">
        <ele>100.356</ele>
        <time>2016-09-25T19:25:55Z</time>
      </trkpt>
      <trkpt lat="43.75822" lon="-0.06342">
        <ele>100.459</ele>
        <time>2016-09-25T19:26:15Z</time>
      </trkpt>
      <trkpt lat="43.75941" lon="-0.06424">
        <ele>100.098</ele>
        <time>2016-09-25T19:26:35Z</time>
      </trkpt>
      <trkpt lat="43.75992" lon="-0.06357">
        <ele>100.853</ele>
        <time>2016-09-25T19:26:55Z</time>
      </trkpt>
      <trkpt lat="43.76025" lon="-0.06357">
        <ele>104.404</ele>
        <time>2016-09-25T19:27:15Z</time>
      </trkpt>
      <trkpt lat="43.75995" lon="-0.06531">
        <ele>100.014</ele>
        <time>2016-09-25T19:27:35Z</time>
      </trkpt>
      <trkpt lat="43.75946" lon="-0.066">
        <ele>100.008</ele>
        <time>2016-09-25T19:27:55Z</time>
      </trkpt>
      <trkpt lat="43.75921" lon="-0.06847">
        <ele>100.071</ele>
        <time>2016-09-25T19:28:15Z</time>
      </trkpt>
      <trkpt lat="43.75932" lon="-0.06887">
        <ele>100.958</ele>
        <time>2016-09-25T19:28:35Z</time>
      </trkpt>
      <trkpt lat="43.75884" lon="-0.06935">
        <ele>106.397</ele>
        <time>2016-09-25T19:28:55Z</time>
      </trkpt>
      <trkpt lat="43.75863" lon="-0.07136">
        <ele>122.786</ele>
        <time>2016-09-25T19:29:15Z</time>
      </trkpt>
      <trkpt lat="43.75772" lon="-0.07477">
        <ele>140.082</ele>
        <time>2016-09-25T19:29:35Z</time>
      </trkpt>
      <trkpt lat="43.75836" lon="-0.07578">
        <ele>140.013</ele>
        <time>2016-09-25T19:29:55Z</time>
      </trkpt>
      <trkpt lat="43.75828" lon="-0.07675">
        <ele>138.636</ele>
        <time>2016-09-25T19:30:15Z</time>
      </trkpt>
      <trkpt lat="43.75724" lon="-0.08068">
        <ele>102.115</ele>
        <time>2016-09-25T19:30:35Z</time>
      </trkpt>
      <trkpt lat="43.75726" lon="-0.08196">
        <ele>94.064</ele>
        <time>2016-09-25T19:30:55Z</time>
      </trkpt>
      <trkpt lat="43.75702" lon="-0.08316">
        <ele>92.906</ele>
        <time>2016-09-25T19:31:15Z</time>
      </trkpt>
      <trkpt lat="43.75606" lon="-0.08308">
        <ele>94.016</ele>
        <time>2016-09-25T19:31:35Z</time>
      </trkpt>
      <trkpt lat="43.75558" lon="-0.08265">
        <ele>94.008</ele>
        <time>2016-09-25T19:31:55Z</time>
      </trkpt>
      <trkpt lat="43.75492" lon="-0.08265">
        <ele>94.172</ele>
        <time>2016-09-25T19:32:15Z</time>
      </trkpt>
      <trkpt lat="43.75479" lon="-0.08286">
        <ele>94.029</ele>
        <time>2016-09-25T19:32:35Z</time>
      </trkpt>
      <trkpt lat="43.75071" lon="-0.0849">
        <ele>94.028</ele>
        <time>2016-09-25T19:32:55Z</time>
      </trkpt>
      <trkpt lat="43.75082" lon="-0.09437">
        <ele>109.737</ele>
        <time>2016-09-25T19:33:15Z</time>
      </trkpt>
      <trkpt lat="43.74717" lon="-0.09327">
        <ele>104.663</ele>
        <time>2016-09-25T19:33:35Z</time>
      </trkpt>
      <trkpt lat="43.74677" lon="-0.09324">
        <ele>103.7</ele>
      </trkpt>
      <trkpt lat="43.74642" lon="-0.09364">
        <ele>101.464</ele>
        <time>2016-09-25T19:33:55Z</time>
      </trkpt>
      <trkpt lat="43.74589" lon="-0.09437">
        <ele>102.017</ele>
        <time>2016-09-25T19:34:15Z</time>
      </trkpt>
      <trkpt lat="43.74554" lon="-0.09331">
        <ele>100.166</ele>
        <time>2016-09-25T19:34:35Z</time>
      </trkpt>
      <trkpt lat="43.74557" lon="-0.09293">
        <ele>99.029</ele>
        <time>2016-09-25T19:34:55Z</time>
      </trkpt>
      <trkpt lat="43.74478" lon="-0.09181">
        <ele>98.1</ele>
        <time>2016-09-25T19:35:15Z</time>
      </trkpt>
      <trkpt lat="43.74451" lon="-0.0929">
        <ele>100.9</ele>
        <time>2016-09-25T19:35:35Z</time>
      </trkpt>
      <trkpt lat="43.74337" lon="-0.09143">
        <ele>100.108</ele>
        <time>2016-09-25T19:35:55Z</time>
      </trkpt>
      <trkpt lat="43.74313" lon="-0.09213">
        <ele>102.228</ele>
        <time>2016-09-25T19:36:15Z</time>
      </trkpt>
      <trkpt lat="43.74284" lon="-0.09308">
        <ele>104.175</ele>
        <time>2016-09-25T19:36:35Z</time>
      </trkpt>
      <trkpt lat="43.74265" lon="-0.09405">
        <ele>105.1</ele>
      </trkpt>
      <trkpt lat="43.74267" lon="-0.09411">
        <ele>106.854</ele>
        <time>2016-09-25T19:36:55Z</time>
      </trkpt>
      <trkpt lat="43.74242" lon="-0.09451">
        <ele>105.2</ele>
      </trkpt>
      <trkpt lat="43.74217" lon="-0.09521">
        <ele>107.7</ele>
        <time>2016-09-25T19:37:15Z</time>
      </trkpt>
      <trkpt lat="43.74176" lon="-0.09573">
        <ele>109.7</ele>
        <time>2016-09-25T19:37:35Z</time>
      </trkpt>
      <trkpt lat="43.74174" lon="-0.09576">
        <ele>109.8</ele>
        <time>2016-09-25T19:37:35Z</time>
      </trkpt>
      <trkpt lat="43.74165" lon="-0.09589">
        <ele>110</ele>
      </trkpt>
      <trkpt lat="43.74182" lon="-0.09639">
        <ele>112.6</ele>
        <time>2016-09-25T19:37:55Z</time>
      </trkpt>
      <trkpt lat="43.74169" lon="-0.09677">
        <ele>115.8</ele>
      </trkpt>
      <trkpt lat="43.74159" lon="-0.09711">
        <ele>117.4</ele>
        <time>2016-09-25T19:38:15Z</time>
      </trkpt>
      <trkpt lat="43.74171" lon="-0.09761">
        <ele>122.382</ele>
        <time>2016-09-25T19:38:35Z</time>
      </trkpt>
      <trkpt lat="43.74158" lon="-0.09834">
        <ele>126.137</ele>
        <time>2016-09-25T19:38:55Z</time>
      </trkpt>
      <trkpt lat="43.74176" lon="-0.09926">
        <ele>131.149</ele>
        <time>2016-09-25T19:39:15Z</time>
      </trkpt>
      <trkpt lat="43.7434" lon="-0.10218">
        <ele>132.113</ele>
        <time>2016-09-25T19:39:35Z</time>
      </trkpt>
      <trkpt lat="43.74275" lon="-0.10396">
        <ele>131.008</ele>
        <time>2016-09-25T19:39:55Z</time>
      </trkpt>
      <trkpt lat="43.74486" lon="-0.10649">
        <ele>130.049</ele>
        <time>2016-09-25T19:40:15Z</time>
      </trkpt>
      <trkpt lat="43.74417" lon="-0.10709">
        <ele>130.056</ele>
        <time>2016-09-25T19:40:35Z</time>
      </trkpt>
      <trkpt lat="43.74445" lon="-0.10896">
        <ele>130.035</ele>
        <time>2016-09-25T19:40:55Z</time>
      </trkpt>
      <trkpt lat="43.74531" lon="-0.11078">
        <ele>123.774</ele>
        <time>2016-09-25T19:41:15Z</time>
      </trkpt>
      <trkpt lat="43.74487" lon="-0.11187">
        <ele>120.07</ele>
        <time>2016-09-25T19:41:35Z</time>
      </trkpt>
      <trkpt lat="43.74431" lon="-0.11209">
        <ele>118.931</ele>
        <time>2016-09-25T19:41:55Z</time>
      </trkpt>
      <trkpt lat="43.74315" lon="-0.1131">
        <ele>115.014</ele>
        <time>2016-09-25T19:42:15Z</time>
      </trkpt>
      <trkpt lat="43.74284" lon="-0.11312">
        <ele>115.083</ele>
        <time>2016-09-25T19:42:35Z</time>
      </trkpt>
      <trkpt lat="43.74194" lon="-0.11194">
        <ele>112.054</ele>
        <time>2016-09-25T19:42:55Z</time>
      </trkpt>
      <trkpt lat="43.74047" lon="-0.11318">
        <ele>127.656</ele>
        <time>2016-09-25T19:43:15Z</time>
      </trkpt>
      <trkpt lat="43.74039" lon="-0.11406">
        <ele>129.411</ele>
        <time>2016-09-25T19:43:35Z</time>
      </trkpt>
      <trkpt lat="43.7392" lon="-0.11415">
        <ele>130.008</ele>
        <time>2016-09-25T19:43:55Z</time>
      </trkpt>
      <trkpt lat="43.73914" lon="-0.11486">
        <ele>130.071</ele>
        <time>2016-09-25T19:44:15Z</time>
      </trkpt>
      <trkpt lat="43.7387" lon="-0.11516">
        <ele>128.958</ele>
        <time>2016-09-25T19:44:35Z</time>
      </trkpt>
      <trkpt lat="43.73814" lon="-0.11587">
        <ele>124.457</ele>
        <time>2016-09-25T19:44:55Z</time>
      </trkpt>
      <trkpt lat="43.73755" lon="-0.11683">
        <ele>124.576</ele>
        <time>2016-09-25T19:45:15Z</time>
      </trkpt>
      <trkpt lat="43.73676" lon="-0.11711">
        <ele>114.862</ele>
        <time>2016-09-25T19:45:35Z</time>
      </trkpt>
      <trkpt lat="43.73644" lon="-0.11739">
        <ele>109.943</ele>
        <time>2016-09-25T19:45:55Z</time>
      </trkpt>
      <trkpt lat="43.73603" lon="-0.11573">
        <ele>106.065</ele>
        <time>2016-09-25T19:46:35Z</time>
      </trkpt>
      <trkpt lat="43.73577" lon="-0.11592">
        <ele>105.002</ele>
        <time>2016-09-25T19:47:15Z</time>
      </trkpt>
      <trkpt lat="43.73565" lon="-0.11661">
        <ele>106.222</ele>
        <time>2016-09-25T19:47:35Z</time>
      </trkpt>
      <trkpt lat="43.73402" lon="-0.11792">
        <ele>124.008</ele>
        <time>2016-09-25T19:47:55Z</time>
      </trkpt>
      <trkpt lat="43.73334" lon="-0.11794">
        <ele>126.14</ele>
        <time>2016-09-25T19:48:15Z</time>
      </trkpt>
      <trkpt lat="43.73293" lon="-0.11824">
        <ele>134.597</ele>
        <time>2016-09-25T19:48:35Z</time>
      </trkpt>
      <trkpt lat="43.73262" lon="-0.11819">
        <ele>133.736</ele>
        <time>2016-09-25T19:48:55Z</time>
      </trkpt>
      <trkpt lat="43.73245" lon="-0.11845">
        <ele>134.015</ele>
        <time>2016-09-25T19:49:15Z</time>
      </trkpt>
      <trkpt lat="43.73247" lon="-0.11933">
        <ele>135.071</ele>
        <time>2016-09-25T19:49:35Z</time>
      </trkpt>
      <trkpt lat="43.73208" lon="-0.12053">
        <ele>135.032</ele>
        <time>2016-09-25T19:49:55Z</time>
      </trkpt>
      <trkpt lat="43.73146" lon="-0.12154">
        <ele>131.475</ele>
        <time>2016-09-25T19:50:15Z</time>
      </trkpt>
      <trkpt lat="43.73117" lon="-0.1224">
        <ele>130.884</ele>
        <time>2016-09-25T19:50:35Z</time>
      </trkpt>
      <trkpt lat="43.73095" lon="-0.12352">
        <ele>133.239</ele>
        <time>2016-09-25T19:50:55Z</time>
      </trkpt>
      <trkpt lat="43.73174" lon="-0.1242">
        <ele>127.501</ele>
        <time>2016-09-25T19:51:15Z</time>
      </trkpt>
      <trkpt lat="43.72941" lon="-0.12972">
        <ele>140.321</ele>
        <time>2016-09-25T19:51:35Z</time>
      </trkpt>
      <trkpt lat="43.72856" lon="-0.12903">
        <ele>150.008</ele>
        <time>2016-09-25T19:51:55Z</time>
      </trkpt>
      <trkpt lat="43.72839" lon="-0.13313">
        <ele>151.829</ele>
        <time>2016-09-25T19:52:15Z</time>
      </trkpt>
      <trkpt lat="43.728" lon="-0.13517">
        <ele>154.266</ele>
        <time>2016-09-25T19:52:35Z</time>
      </trkpt>
      <trkpt lat="43.72771" lon="-0.13551">
        <ele>158.765</ele>
        <time>2016-09-25T19:52:55Z</time>
      </trkpt>
      <trkpt lat="43.72762" lon="-0.13721">
        <ele>160.074</ele>
        <time>2016-09-25T19:53:15Z</time>
      </trkpt>
      <trkpt lat="43.72717" lon="-0.13712">
        <ele>156.86</ele>
        <time>2016-09-25T19:53:35Z</time>
      </trkpt>
      <trkpt lat="43.72554" lon="-0.13826">
        <ele>149.251</ele>
        <time>2016-09-25T19:53:55Z</time>
      </trkpt>
      <trkpt lat="43.72441" lon="-0.13856">
        <ele>146.484</ele>
        <time>2016-09-25T19:54:15Z</time>
      </trkpt>
      <trkpt lat="43.72368" lon="-0.13637">
        <ele>155.063</ele>
        <time>2016-09-25T19:54:35Z</time>
      </trkpt>
      <trkpt lat="43.72323" lon="-0.13622">
        <ele>154.997</ele>
        <time>2016-09-25T19:54:55Z</time>
      </trkpt>
      <trkpt lat="43.7229" lon="-0.13648">
        <ele>152.023</ele>
        <time>2016-09-25T19:55:15Z</time>
      </trkpt>
      <trkpt lat="43.72241" lon="-0.13622">
        <ele>145.625</ele>
        <time>2016-09-25T19:55:35Z</time>
      </trkpt>
      <trkpt lat="43.72137" lon="-0.13671">
        <ele>138.108</ele>
        <time>2016-09-25T19:55:55Z</time>
      </trkpt>
      <trkpt lat="43.71997" lon="-0.13922">
        <ele>147.865</ele>
        <time>2016-09-25T19:56:15Z</time>
      </trkpt>
      <trkpt lat="43.71937" lon="-0.13924">
        <ele>144.672</ele>
        <time>2016-09-25T19:56:35Z</time>
      </trkpt>
      <trkpt lat="43.71864" lon="-0.13982">
        <ele>144.131</ele>
        <time>2016-09-25T19:56:55Z</time>
      </trkpt>
      <trkpt lat="43.71819" lon="-0.14019">
        <ele>141.89</ele>
        <time>2016-09-25T19:57:15Z</time>
      </trkpt>
      <trkpt lat="43.71668" lon="-0.14042">
        <ele>144.666</ele>
        <time>2016-09-25T19:57:35Z</time>
      </trkpt>
      <trkpt lat="43.71574" lon="-0.1407">
        <ele>145.087</ele>
        <time>2016-09-25T19:57:55Z</time>
      </trkpt>
      <trkpt lat="43.71555" lon="-0.1403">
        <ele>145.03</ele>
        <time>2016-09-25T19:58:15Z</time>
      </trkpt>
      <trkpt lat="43.7142" lon="-0.1407">
        <ele>140.079</ele>
        <time>2016-09-25T19:58:35Z</time>
      </trkpt>
      <trkpt lat="43.71281" lon="-0.14087">
        <ele>138.275</ele>
        <time>2016-09-25T19:58:55Z</time>
      </trkpt>
      <trkpt lat="43.71274" lon="-0.1406">
        <ele>137.028</ele>
        <time>2016-09-25T19:59:15Z</time>
      </trkpt>
      <trkpt lat="43.71105" lon="-0.14055">
        <ele>135.02</ele>
        <time>2016-09-25T19:59:35Z</time>
      </trkpt>
      <trkpt lat="43.71022" lon="-0.141">
        <ele>133.453</ele>
        <time>2016-09-25T20:00:15Z</time>
      </trkpt>
      <trkpt lat="43.70958" lon="-0.14111">
        <ele>130.08</ele>
        <time>2016-09-25T20:00:35Z</time>
      </trkpt>
      <trkpt lat="43.70893" lon="-0.14169">
        <ele>127.379</ele>
        <time>2016-09-25T20:00:55Z</time>
      </trkpt>
      <trkpt lat="43.70892" lon="-0.14221">
        <ele>126.274</ele>
        <time>2016-09-25T20:01:35Z</time>
      </trkpt>
      <trkpt lat="43.70771" lon="-0.14367">
        <ele>113.515</ele>
        <time>2016-09-25T20:01:55Z</time>
      </trkpt>
      <trkpt lat="43.70695" lon="-0.14414">
        <ele>114.888</ele>
        <time>2016-09-25T20:02:15Z</time>
      </trkpt>
      <trkpt lat="43.7065" lon="-0.14459">
        <ele>119.697</ele>
        <time>2016-09-25T20:02:35Z</time>
      </trkpt>
      <trkpt lat="43.70642" lon="-0.14506">
        <ele>124.322</ele>
        <time>2016-09-25T20:02:55Z</time>
      </trkpt>
      <trkpt lat="43.70667" lon="-0.14605">
        <ele>129.862</ele>
        <time>2016-09-25T20:03:15Z</time>
      </trkpt>
      <trkpt lat="43.70609" lon="-0.14714">
        <ele>125.508</ele>
        <time>2016-09-25T20:03:35Z</time>
      </trkpt>
      <trkpt lat="43.70754" lon="-0.14822">
        <ele>134.908</ele>
        <time>2016-09-25T20:03:55Z</time>
      </trkpt>
      <trkpt lat="43.70879" lon="-0.14957">
        <ele>137.548</ele>
        <time>2016-09-25T20:04:15Z</time>
      </trkpt>
      <trkpt lat="43.70836" lon="-0.14972">
        <ele>141.825</ele>
        <time>2016-09-25T20:04:35Z</time>
      </trkpt>
      <trkpt lat="43.70845" lon="-0.15146">
        <ele>141.614</ele>
        <time>2016-09-25T20:04:55Z</time>
      </trkpt>
      <trkpt lat="43.70788" lon="-0.15212">
        <ele>143.713</ele>
        <time>2016-09-25T20:05:15Z</time>
      </trkpt>
      <trkpt lat="43.70685" lon="-0.15405">
        <ele>142.52</ele>
        <time>2016-09-25T20:05:55Z</time>
      </trkpt>
      <trkpt lat="43.70626" lon="-0.15457">
        <ele>139.063</ele>
        <time>2016-09-25T20:06:15Z</time>
      </trkpt>
      <trkpt lat="43.70392" lon="-0.15536">
        <ele>133.292</ele>
        <time>2016-09-25T20:06:35Z</time>
      </trkpt>
      <trkpt lat="43.70145" lon="-0.15663">
        <ele>111.629</ele>
        <time>2016-09-25T20:06:55Z</time>
      </trkpt>
      <trkpt lat="43.70139" lon="-0.15867">
        <ele>105.2</ele>
        <time>2016-09-25T20:07:15Z</time>
      </trkpt>
      <trkpt lat="43.70068" lon="-0.15908">
        <ele>105.02</ele>
        <time>2016-09-25T20:07:35Z</time>
      </trkpt>
      <trkpt lat="43.70034" lon="-0.15955">
        <ele>105.108</ele>
        <time>2016-09-25T20:07:55Z</time>
      </trkpt>
      <trkpt lat="43.69928" lon="-0.15987">
        <ele>104.088</ele>
        <time>2016-09-25T20:08:15Z</time>
      </trkpt>
      <trkpt lat="43.69809" lon="-0.16058">
        <ele>103.065</ele>
        <time>2016-09-25T20:08:35Z</time>
      </trkpt>
      <trkpt lat="43.6972" lon="-0.16135">
        <ele>102.084</ele>
        <time>2016-09-25T20:08:55Z</time>
      </trkpt>
      <trkpt lat="43.69612" lon="-0.16287">
        <ele>100.783</ele>
        <time>2016-09-25T20:09:15Z</time>
      </trkpt>
      <trkpt lat="43.69497" lon="-0.16388">
        <ele>99.099</ele>
        <time>2016-09-25T20:09:35Z</time>
      </trkpt>
      <trkpt lat="43.69432" lon="-0.16581">
        <ele>99.05</ele>
        <time>2016-09-25T20:09:55Z</time>
      </trkpt>
      <trkpt lat="43.69395" lon="-0.1668">
        <ele>98.083</ele>
        <time>2016-09-25T20:10:15Z</time>
      </trkpt>
      <trkpt lat="43.69353" lon="-0.17047">
        <ele>97.022</ele>
        <time>2016-09-25T20:10:35Z</time>
      </trkpt>
      <trkpt lat="43.69312" lon="-0.17158">
        <ele>97.041</ele>
        <time>2016-09-25T20:10:55Z</time>
      </trkpt>
      <trkpt lat="43.69257" lon="-0.17236">
        <ele>97.081</ele>
        <time>2016-09-25T20:11:15Z</time>
      </trkpt>
      <trkpt lat="43.68949" lon="-0.1747">
        <ele>97.009</ele>
        <time>2016-09-25T20:11:35Z</time>
      </trkpt>
      <trkpt lat="43.69486" lon="-0.19416">
        <ele>92.008</ele>
        <time>2016-09-25T20:11:55Z</time>
      </trkpt>
      <trkpt lat="43.69665" lon="-0.20087">
        <ele>92.037</ele>
        <time>2016-09-25T20:12:35Z</time>
      </trkpt>
      <trkpt lat="43.69731" lon="-0.20362">
        <ele>92.096</ele>
        <time>2016-09-25T20:12:55Z</time>
      </trkpt>
      <trkpt lat="43.69544" lon="-0.20523">
        <ele>90.695</ele>
        <time>2016-09-25T20:13:15Z</time>
      </trkpt>
      <trkpt lat="43.69554" lon="-0.20572">
        <ele>90.411</ele>
        <time>2016-09-25T20:13:35Z</time>
      </trkpt>
      <trkpt lat="43.6935" lon="-0.20723">
        <ele>85.692</ele>
        <time>2016-09-25T20:13:55Z</time>
      </trkpt>
      <trkpt lat="43.69416" lon="-0.20823">
        <ele>85.435</ele>
        <time>2016-09-25T20:14:15Z</time>
      </trkpt>
      <trkpt lat="43.6963" lon="-0.21836">
        <ele>84.083</ele>
        <time>2016-09-25T20:14:55Z</time>
      </trkpt>
      <trkpt lat="43.69932" lon="-0.23239">
        <ele>82.025</ele>
        <time>2019-03-30T18:01:05Z</time>
      </trkpt>
      <trkpt lat="43.7015" lon="-0.23435">
        <ele>81.017</ele>
        <time>2019-03-30T18:01:25Z</time>
      </trkpt>
      <trkpt lat="43.7017" lon="-0.23669">
        <ele>80.908</ele>
        <time>2016-09-25T20:15:55Z</time>
      </trkpt>
      <trkpt lat="43.70198" lon="-0.23802">
        <ele>80.014</ele>
        <time>2016-09-25T20:16:15Z</time>
      </trkpt>
      <trkpt lat="43.70302" lon="-0.23752">
        <ele>81.011</ele>
        <time>2016-09-25T20:16:35Z</time>
      </trkpt>
      <trkpt lat="43.70397" lon="-0.24132">
        <ele>80.09</ele>
        <time>2016-09-25T20:16:55Z</time>
      </trkpt>
      <trkpt lat="43.70293" lon="-0.24184">
        <ele>80.029</ele>
        <time>2016-09-25T20:17:15Z</time>
      </trkpt>
      <trkpt lat="43.70378" lon="-0.24615">
        <ele>80.035</ele>
        <time>2016-09-25T20:17:35Z</time>
      </trkpt>
      <trkpt lat="43.70347" lon="-0.24838">
        <ele>79.596</ele>
        <time>2016-09-25T20:17:55Z</time>
      </trkpt>
      <trkpt lat="43.70308" lon="-0.24978">
        <ele>77.959</ele>
        <time>2016-09-25T20:18:15Z</time>
      </trkpt>
      <trkpt lat="43.70425" lon="-0.25031">
        <ele>77.398</ele>
        <time>2016-09-25T20:18:35Z</time>
      </trkpt>
      <trkpt lat="43.70459" lon="-0.26003">
        <ele>77.014</ele>
        <time>2016-09-25T20:18:55Z</time>
      </trkpt>
      <trkpt lat="43.70412" lon="-0.26051">
        <ele>77.054</ele>
        <time>2021-01-03T16:16:20Z</time>
      </trkpt>
      <trkpt lat="43.70432" lon="-0.26089">
        <ele>77.009</ele>
        <time>2016-09-25T20:19:35Z</time>
      </trkpt>
      <trkpt lat="43.70443" lon="-0.26172">
        <ele>77.008</ele>
        <time>2021-01-03T16:17:00Z</time>
      </trkpt>
      <trkpt lat="43.70273" lon="-0.2621">
        <ele>77.287</ele>
        <time>2021-01-03T16:17:20Z</time>
      </trkpt>
      <trkpt lat="43.70176" lon="-0.26276">
        <ele>78.014</ele>
        <time>2021-01-03T16:17:40Z</time>
      </trkpt>
      <trkpt lat="43.6999" lon="-0.26317">
        <ele>80.593</ele>
        <time>2021-01-03T16:18:00Z</time>
      </trkpt>
      <trkpt lat="43.70002" lon="-0.26427">
        <ele>82.932</ele>
        <time>2019-03-30T14:31:45Z</time>
      </trkpt>
      <trkpt lat="43.69986" lon="-0.26628">
        <ele>85.019</ele>
        <time>2019-03-30T14:32:05Z</time>
      </trkpt>
      <trkpt lat="43.69964" lon="-0.26695">
        <ele>91.842</ele>
        <time>2019-03-30T14:32:25Z</time>
      </trkpt>
      <trkpt lat="43.69732" lon="-0.26897">
        <ele>125.361</ele>
        <time>2019-03-30T14:32:45Z</time>
      </trkpt>
      <trkpt lat="43.68963" lon="-0.27419">
        <ele>150.027</ele>
        <time>2019-03-30T14:33:05Z</time>
      </trkpt>
      <trkpt lat="43.6898" lon="-0.27692">
        <ele>150.068</ele>
        <time>2019-03-30T14:33:25Z</time>
      </trkpt>
      <trkpt lat="43.68855" lon="-0.27784">
        <ele>152.014</ele>
        <time>2016-09-25T15:54:42Z</time>
      </trkpt>
      <trkpt lat="43.68855" lon="-0.27839">
        <ele>152.008</ele>
        <time>2016-09-25T15:55:02Z</time>
      </trkpt>
      <trkpt lat="43.68788" lon="-0.27906">
        <ele>152.068</ele>
        <time>2016-09-25T15:55:22Z</time>
      </trkpt>
      <trkpt lat="43.68746" lon="-0.27972">
        <ele>152.025</ele>
        <time>2016-09-25T15:55:42Z</time>
      </trkpt>
      <trkpt lat="43.68664" lon="-0.28069">
        <ele>151.524</ele>
        <time>2016-09-25T15:56:02Z</time>
      </trkpt>
      <trkpt lat="43.6861" lon="-0.28097">
        <ele>151.633</ele>
        <time>2016-09-25T15:56:22Z</time>
      </trkpt>
      <trkpt lat="43.68453" lon="-0.28078">
        <ele>155.079</ele>
        <time>2016-09-25T15:56:42Z</time>
      </trkpt>
      <trkpt lat="43.68391" lon="-0.28178">
        <ele>155.06</ele>
        <time>2016-09-25T15:57:02Z</time>
      </trkpt>
      <trkpt lat="43.68354" lon="-0.28292">
        <ele>151.083</ele>
        <time>2016-09-25T15:57:22Z</time>
      </trkpt>
      <trkpt lat="43.68211" lon="-0.28374">
        <ele>136.692</ele>
        <time>2016-09-25T15:57:42Z</time>
      </trkpt>
      <trkpt lat="43.68158" lon="-0.28421">
        <ele>128.245</ele>
        <time>2016-09-25T15:58:02Z</time>
      </trkpt>
      <trkpt lat="43.68045" lon="-0.28434">
        <ele>116.647</ele>
        <time>2016-09-25T15:58:22Z</time>
      </trkpt>
      <trkpt lat="43.68011" lon="-0.28397">
        <ele>118.611</ele>
        <time>2016-09-25T15:58:42Z</time>
      </trkpt>
      <trkpt lat="43.6795" lon="-0.28399">
        <ele>114.608</ele>
        <time>2016-09-25T15:59:02Z</time>
      </trkpt>
      <trkpt lat="43.67915" lon="-0.2838">
        <ele>119.78</ele>
        <time>2016-09-25T15:59:22Z</time>
      </trkpt>
      <trkpt lat="43.67857" lon="-0.28434">
        <ele>113.347</ele>
        <time>2016-09-25T15:59:42Z</time>
      </trkpt>
      <trkpt lat="43.67811" lon="-0.28421">
        <ele>113.436</ele>
        <time>2016-09-25T16:00:02Z</time>
      </trkpt>
      <trkpt lat="43.67713" lon="-0.28348">
        <ele>118.945</ele>
        <time>2016-09-25T16:00:22Z</time>
      </trkpt>
      <trkpt lat="43.67686" lon="-0.28359">
        <ele>115.331</ele>
        <time>2016-09-25T16:00:42Z</time>
      </trkpt>
      <trkpt lat="43.67677" lon="-0.28316">
        <ele>124.262</ele>
        <time>2016-09-25T16:01:02Z</time>
      </trkpt>
      <trkpt lat="43.67624" lon="-0.28275">
        <ele>128.925</ele>
        <time>2016-09-25T16:01:22Z</time>
      </trkpt>
      <trkpt lat="43.67516" lon="-0.28311">
        <ele>117.844</ele>
        <time>2016-09-25T16:01:42Z</time>
      </trkpt>
      <trkpt lat="43.67471" lon="-0.28275">
        <ele>124.474</ele>
        <time>2016-09-25T16:02:02Z</time>
      </trkpt>
      <trkpt lat="43.6733" lon="-0.28278">
        <ele>120.056</ele>
        <time>2019-03-30T14:41:25Z</time>
      </trkpt>
      <trkpt lat="43.67207" lon="-0.28236">
        <ele>118.221</ele>
        <time>2019-03-30T14:41:45Z</time>
      </trkpt>
      <trkpt lat="43.67069" lon="-0.28247">
        <ele>115.108</ele>
        <time>2016-09-25T16:02:42Z</time>
      </trkpt>
      <trkpt lat="43.67058" lon="-0.28329">
        <ele>114.993</ele>
        <time>2016-09-25T16:03:02Z</time>
      </trkpt>
      <trkpt lat="43.66991" lon="-0.28395">
        <ele>115.02</ele>
        <time>2016-09-25T16:03:22Z</time>
      </trkpt>
      <trkpt lat="43.66965" lon="-0.28447">
        <ele>115.879</ele>
        <time>2016-09-25T16:03:42Z</time>
      </trkpt>
      <trkpt lat="43.66833" lon="-0.28638">
        <ele>124.998</ele>
        <time>2019-03-30T14:43:25Z</time>
      </trkpt>
      <trkpt lat="43.6703" lon="-0.28771">
        <ele>134.264</ele>
        <time>2016-09-25T16:04:42Z</time>
      </trkpt>
      <trkpt lat="43.6707" lon="-0.28824">
        <ele>140.655</ele>
        <time>2016-09-25T16:05:02Z</time>
      </trkpt>
      <trkpt lat="43.6707" lon="-0.28914">
        <ele>150.668</ele>
        <time>2016-09-25T16:05:22Z</time>
      </trkpt>
      <trkpt lat="43.67004" lon="-0.29371">
        <ele>160.037</ele>
        <time>2016-09-25T16:05:42Z</time>
      </trkpt>
      <trkpt lat="43.66921" lon="-0.29719">
        <ele>159.863</ele>
        <time>2016-09-25T16:06:02Z</time>
      </trkpt>
      <trkpt lat="43.66935" lon="-0.2988">
        <ele>157.344</ele>
        <time>2016-09-25T16:06:22Z</time>
      </trkpt>
      <trkpt lat="43.6676" lon="-0.29927">
        <ele>160.018</ele>
        <time>2016-09-25T16:06:42Z</time>
      </trkpt>
      <trkpt lat="43.66696" lon="-0.29934">
        <ele>160.008</ele>
        <time>2016-09-25T16:07:02Z</time>
      </trkpt>
      <trkpt lat="43.66328" lon="-0.30084">
        <ele>162.032</ele>
        <time>2016-09-25T16:07:22Z</time>
      </trkpt>
      <trkpt lat="43.66055" lon="-0.29916">
        <ele>163.029</ele>
        <time>2016-09-25T16:07:42Z</time>
      </trkpt>
      <trkpt lat="43.66055" lon="-0.29916">
        <ele>163.029</ele>
        <time>2016-09-25T16:07:42Z</time>
      </trkpt>
      <trkpt lat="43.6603" lon="-0.29936">
        <ele>163.998</ele>
        <time>2016-09-25T16:08:02Z</time>
      </trkpt>
      <trkpt lat="43.66046" lon="-0.302">
        <ele>164.417</ele>
        <time>2016-09-25T16:08:22Z</time>
      </trkpt>
      <trkpt lat="43.65204" lon="-0.30303">
        <ele>168.153</ele>
        <time>2016-09-25T16:08:42Z</time>
      </trkpt>
      <trkpt lat="43.64889" lon="-0.30335">
        <ele>167.034</ele>
        <time>2016-09-25T16:09:02Z</time>
      </trkpt>
      <trkpt lat="43.64459" lon="-0.30434">
        <ele>170.017</ele>
        <time>2019-03-30T14:48:25Z</time>
      </trkpt>
      <trkpt lat="43.64518" lon="-0.30682">
        <ele>167.056</ele>
        <time>2016-09-25T16:09:42Z</time>
      </trkpt>
      <trkpt lat="43.64368" lon="-0.31421">
        <ele>172.024</ele>
        <time>2016-09-25T16:10:02Z</time>
      </trkpt>
      <trkpt lat="43.64273" lon="-0.31395">
        <ele>172.004</ele>
        <time>2016-09-25T16:10:22Z</time>
      </trkpt>
      <trkpt lat="43.63731" lon="-0.31101">
        <ele>174.708</ele>
        <time>2016-09-25T16:11:02Z</time>
      </trkpt>
      <trkpt lat="43.63183" lon="-0.30846">
        <ele>175.088</ele>
        <time>2016-09-25T16:11:22Z</time>
      </trkpt>
      <trkpt lat="43.62892" lon="-0.30831">
        <ele>175.065</ele>
        <time>2016-09-25T16:11:42Z</time>
      </trkpt>
      <trkpt lat="43.62588" lon="-0.30745">
        <ele>177.094</ele>
        <time>2016-09-25T16:12:02Z</time>
      </trkpt>
      <trkpt lat="43.62414" lon="-0.30734">
        <ele>179.043</ele>
        <time>2016-09-25T16:12:22Z</time>
      </trkpt>
      <trkpt lat="43.62335" lon="-0.30697">
        <ele>179.189</ele>
        <time>2016-09-25T16:12:42Z</time>
      </trkpt>
      <trkpt lat="43.62224" lon="-0.30672">
        <ele>180.07</ele>
        <time>2016-09-25T16:13:02Z</time>
      </trkpt>
      <trkpt lat="43.62091" lon="-0.30594">
        <ele>180.093</ele>
        <time>2016-09-25T16:13:22Z</time>
      </trkpt>
      <trkpt lat="43.61723" lon="-0.30322">
        <ele>182.072</ele>
        <time>2016-09-25T16:13:42Z</time>
      </trkpt>
      <trkpt lat="43.61364" lon="-0.30097">
        <ele>184.012</ele>
        <time>2016-09-25T16:14:02Z</time>
      </trkpt>
      <trkpt lat="43.61199" lon="-0.29865">
        <ele>185.032</ele>
        <time>2016-09-25T16:14:22Z</time>
      </trkpt>
      <trkpt lat="43.60961" lon="-0.29875">
        <ele>185.005</ele>
        <time>2019-03-30T14:53:45Z</time>
      </trkpt>
      <trkpt lat="43.60657" lon="-0.29823">
        <ele>185.008</ele>
        <time>2019-03-30T14:54:05Z</time>
      </trkpt>
      <trkpt lat="43.60645" lon="-0.30139">
        <ele>185.097</ele>
        <time>2019-03-30T14:54:25Z</time>
      </trkpt>
      <trkpt lat="43.60577" lon="-0.30141">
        <ele>185.074</ele>
        <time>2019-03-30T14:54:45Z</time>
      </trkpt>
      <trkpt lat="43.60557" lon="-0.30568">
        <ele>182.713</ele>
        <time>2019-03-30T14:55:05Z</time>
        <extensions>
          <visugpx:TrkExtension xmlns:visugpx="https://www.visugpx.com/editgpx/">
            <visugpx:node>1</visugpx:node>
            </visugpx:TrkExtension>
        </extensions>
      </trkpt>
    </trkseg>
  </trk>
</gpx>